Time;durP1;ratioP1;P1;durP2;ratioP2;P2;SDS_P1;SDS_P2;PMS_P1;PMS_P2;Temp;Humidity;BMP_temperature;BMP_pressure;BME280_temperature;BME280_humidity;BME280_pressure;Samples;Min_cycle;Max_cycle;Signal;HPM_P1;HPM_P2
2021/09/06 00:00:34;;;;;;;;;14.50;14.50;;;;;28.37;42.62;101246.84;144217;563;132018;-69
2021/09/06 00:03:08;;;;;;;;;16.25;14.75;;;;;28.28;42.62;101245.00;144243;583;132012;-68
2021/09/06 00:05:42;;;;;;;;;13.25;13.25;;;;;28.18;43.40;101251.28;144224;626;132904;-68
2021/09/06 00:08:16;;;;;;;;;14.00;14.00;;;;;28.12;43.44;101262.66;144251;676;132006;-69
2021/09/06 00:10:51;;;;;;;;;15.50;15.00;;;;;27.31;45.20;101249.38;144222;605;132905;-69
2021/09/06 00:13:24;;;;;;;;;16.00;14.00;;;;;27.44;45.27;101260.78;144248;563;131020;-69
2021/09/06 00:15:58;;;;;;;;;13.50;13.50;;;;;27.43;45.19;101260.94;144223;610;131020;-69
2021/09/06 00:18:33;;;;;;;;;15.00;15.00;;;;;27.77;44.30;101261.38;144254;585;131021;-69
2021/09/06 00:21:07;;;;;;;;;17.50;17.00;;;;;27.47;45.54;101267.75;144214;582;132010;-70
2021/09/06 00:23:41;;;;;;;;;13.75;13.75;;;;;27.30;46.19;101274.66;144254;569;132008;-68
2021/09/06 00:26:15;;;;;;;;;12.50;12.50;;;;;25.85;49.62;101277.25;144219;575;132905;-68
2021/09/06 00:28:49;;;;;;;;;15.50;15.00;;;;;26.87;46.71;101273.09;144257;715;131020;-68
2021/09/06 00:31:23;;;;;;;;;11.75;11.75;;;;;26.12;48.85;101268.72;144228;594;132904;-68
2021/09/06 00:33:57;;;;;;;;;14.00;13.00;;;;;26.56;47.70;101262.31;144252;587;132006;-68
2021/09/06 00:36:31;;;;;;;;;9.75;9.75;;;;;27.55;44.72;101262.50;144218;683;132904;-69
2021/09/06 00:39:05;;;;;;;;;14.00;13.25;;;;;27.73;44.50;101262.66;144237;567;132013;-68
2021/09/06 00:41:39;;;;;;;;;17.25;16.50;;;;;28.13;43.30;101256.28;144230;609;132905;-69
2021/09/06 00:44:13;;;;;;;;;14.00;13.50;;;;;28.35;42.80;101267.72;144247;586;132008;-68
2021/09/06 00:46:47;;;;;;;;;14.00;12.25;;;;;28.17;42.89;101263.09;144213;729;132012;-67
2021/09/06 00:49:30;;;;;;;;;15.50;15.50;;;;;27.04;45.89;101269.78;144252;693;132008;-68
2021/09/06 00:52:04;;;;;;;;;12.75;12.75;;;;;26.94;46.51;101275.13;144218;606;132012;-68
2021/09/06 00:54:38;;;;;;;;;13.75;12.00;;;;;28.20;43.23;101279.00;144245;605;132012;-70
2021/09/06 00:57:12;;;;;;;;;15.00;14.00;;;;;28.57;42.02;101280.03;144222;609;132018;-68
2021/09/06 00:59:46;;;;;;;;;13.75;13.75;;;;;28.63;41.74;101281.28;144255;637;131020;-68
2021/09/06 01:02:20;;;;;;;;;10.75;10.50;;;;;28.64;41.42;101280.34;144227;615;132904;-68
2021/09/06 01:04:54;;;;;;;;;13.00;13.00;;;;;28.72;41.84;101277.75;144238;595;132008;-68
2021/09/06 01:07:28;;;;;;;;;14.25;12.50;;;;;28.85;41.43;101269.28;144223;652;132905;-68
2021/09/06 01:10:08;;;;;;;;;15.50;15.50;;;;;28.90;41.41;101264.28;144254;582;131021;-69
2021/09/06 01:12:42;;;;;;;;;12.50;12.00;;;;;28.51;42.34;101276.09;144227;591;132904;-69
2021/09/06 01:15:16;;;;;;;;;20.00;20.00;;;;;28.86;41.66;101289.91;144246;584;132012;-68
2021/09/06 01:17:50;;;;;;;;;15.25;12.75;;;;;28.82;41.39;101281.25;144223;576;131905;-69
2021/09/06 01:20:24;;;;;;;;;15.25;14.00;;;;;28.81;41.30;101286.78;144248;597;132008;-68
2021/09/06 01:22:58;;;;;;;;;13.25;11.75;;;;;28.82;41.17;101283.94;144223;600;132018;-68
2021/09/06 01:25:36;;;;;;;;;13.75;13.75;;;;;28.79;41.25;101289.66;144255;622;131021;-68
2021/09/06 01:28:12;;;;;;;;;13.00;13.00;;;;;27.01;45.27;101283.50;144225;565;131905;-67
2021/09/06 01:30:46;;;;;;;;;14.75;13.25;;;;;25.55;49.90;101286.03;144243;728;132008;-67
2021/09/06 01:33:20;;;;;;;;;15.75;15.75;;;;;25.76;49.41;101280.72;144215;598;132010;-66
2021/09/06 01:35:54;;;;;;;;;18.25;16.75;;;;;25.21;51.95;101294.16;144253;582;132006;-67
2021/09/06 01:38:29;;;;;;;;;15.50;15.50;;;;;25.28;51.55;101298.91;144218;646;132011;-66
2021/09/06 01:41:03;;;;;;;;;19.00;19.00;;;;;26.65;47.55;101297.34;144247;571;131023;-68
2021/09/06 01:43:37;;;;;;;;;15.25;15.00;;;;;27.11;46.06;101292.47;144223;565;132010;-67
2021/09/06 01:46:11;;;;;;;;;17.50;16.00;;;;;26.01;48.54;101291.13;144243;599;132006;-67
2021/09/06 01:48:44;;;;;;;;;18.00;17.00;;;;;25.95;48.75;101282.72;144223;608;132012;-67
2021/09/06 01:51:18;;;;;;;;;13.50;13.50;;;;;26.76;46.16;101280.28;144244;582;131993;-67
2021/09/06 01:53:52;;;;;;;;;14.25;14.25;;;;;26.92;45.79;101285.19;144220;571;131905;-67
2021/09/06 01:56:26;;;;;;;;;15.50;15.50;;;;;26.13;47.76;101283.84;144245;606;131020;-68
2021/09/06 01:59:01;;;;;;;;;16.25;12.75;;;;;25.89;47.70;101272.47;144209;583;132905;-68
2021/09/06 02:01:37;;;;;;;;;11.25;10.00;;;;;25.71;48.30;101281.09;144254;588;131021;-69
2021/09/06 02:04:11;;;;;;;;;16.00;16.00;;;;;27.05;44.92;101271.47;144220;606;132903;-69
2021/09/06 02:06:45;;;;;;;;;14.75;14.25;;;;;26.69;45.70;101261.09;144246;563;132012;-69
2021/09/06 02:09:19;;;;;;;;;16.50;15.00;;;;;25.73;48.71;101268.38;144227;579;131905;-68
2021/09/06 02:11:53;;;;;;;;;15.75;15.00;;;;;25.23;49.75;101276.91;144256;674;131012;-67
2021/09/06 02:14:26;;;;;;;;;14.25;12.25;;;;;25.98;48.01;101272.53;144226;596;131904;-69
2021/09/06 02:17:00;;;;;;;;;13.75;13.75;;;;;25.79;48.09;101273.25;144254;605;131023;-67
2021/09/06 02:19:34;;;;;;;;;15.75;15.75;;;;;26.55;46.52;101272.22;144226;613;131904;-67
2021/09/06 02:22:08;;;;;;;;;14.25;14.25;;;;;24.96;51.03;101285.38;144245;644;131020;-67
2021/09/06 02:24:42;;;;;;;;;15.00;14.00;;;;;26.78;46.07;101293.66;144218;578;132905;-67
2021/09/06 02:27:16;;;;;;;;;13.25;13.25;;;;;25.59;49.24;101295.56;144245;576;132012;-67
2021/09/06 02:29:50;;;;;;;;;19.75;15.75;;;;;27.21;44.68;101294.34;144224;607;132905;-67
2021/09/06 02:32:24;;;;;;;;;13.25;13.25;;;;;27.77;43.50;101288.34;144256;581;131012;-67
2021/09/06 02:34:58;;;;;;;;;14.00;14.00;;;;;26.67;45.92;101299.94;144226;610;132904;-67
2021/09/06 02:37:31;;;;;;;;;12.75;12.75;;;;;25.63;48.65;101305.06;144240;641;132013;-68
2021/09/06 02:40:06;;;;;;;;;13.50;13.25;;;;;26.75;45.68;101310.91;144225;569;132904;-67
2021/09/06 02:42:40;;;;;;;;;13.25;12.50;;;;;27.27;44.33;101318.91;144251;571;131049;-67
2021/09/06 02:45:14;;;;;;;;;13.25;11.00;;;;;27.80;42.90;101315.06;144228;590;131904;-67
2021/09/06 02:47:50;;;;;;;;;13.50;13.25;;;;;25.93;46.54;101316.94;144241;592;132010;-68
2021/09/06 02:50:24;;;;;;;;;14.00;14.00;;;;;26.45;45.94;101309.00;144225;602;131904;-67
2021/09/06 02:52:58;;;;;;;;;19.25;18.25;;;;;26.09;46.64;101305.78;144244;583;131022;-67
2021/09/06 02:55:32;;;;;;;;;12.00;12.00;;;;;25.73;47.45;101324.84;144216;675;132010;-68
2021/09/06 02:58:06;;;;;;;;;13.75;13.00;;;;;26.22;46.18;101332.50;144255;644;131020;-68
2021/09/06 03:00:40;;;;;;;;;14.00;14.00;;;;;27.68;42.81;101332.34;144215;566;132904;-67
2021/09/06 03:03:14;;;;;;;;;15.25;13.75;;;;;27.84;42.20;101337.19;144259;595;131020;-67
2021/09/06 03:05:48;;;;;;;;;13.00;13.00;;;;;26.61;44.91;101328.22;144226;600;131905;-67
2021/09/06 03:08:22;;;;;;;;;14.00;14.00;;;;;27.62;42.71;101328.37;144244;578;132012;-67
2021/09/06 03:10:56;;;;;;;;;15.00;15.00;;;;;26.74;44.69;101332.59;144217;632;132020;-68
2021/09/06 03:13:30;;;;;;;;;12.75;12.00;;;;;28.14;41.10;101338.94;144246;628;131012;-67
2021/09/06 03:16:04;;;;;;;;;12.75;11.25;;;;;28.22;40.99;101330.12;144223;575;131905;-67
2021/09/06 03:18:37;;;;;;;;;14.75;14.25;;;;;28.06;41.68;101330.69;144248;565;132008;-67
2021/09/06 03:21:11;;;;;;;;;12.25;12.25;;;;;28.08;41.04;101335.97;144221;630;131904;-67
2021/09/06 03:23:45;;;;;;;;;13.50;13.00;;;;;28.05;41.61;101329.03;144253;609;132011;-67
2021/09/06 03:26:19;;;;;;;;;17.50;17.50;;;;;27.94;41.98;101321.00;144223;577;131904;-67
2021/09/06 03:28:53;;;;;;;;;15.25;14.75;;;;;27.26;43.06;101322.59;144251;608;132008;-67
2021/09/06 03:31:27;;;;;;;;;16.00;16.00;;;;;27.86;41.95;101330.69;144218;646;132021;-67
2021/09/06 03:34:01;;;;;;;;;13.75;13.00;;;;;28.12;41.61;101324.75;144253;613;131022;-68
2021/09/06 03:36:35;;;;;;;;;10.50;10.50;;;;;28.21;41.10;101323.00;144226;570;131469;-69
2021/09/06 03:39:08;;;;;;;;;16.50;14.00;;;;;28.13;41.47;101329.16;144248;564;131020;-69
2021/09/06 03:41:42;;;;;;;;;13.25;12.75;;;;;27.61;42.87;101336.59;144215;615;132905;-69
2021/09/06 03:44:16;;;;;;;;;14.50;13.25;;;;;28.20;41.64;101332.13;144256;579;131020;-68
2021/09/06 03:46:50;;;;;;;;;16.00;16.00;;;;;28.26;41.44;101338.81;144229;566;132905;-68
2021/09/06 03:49:24;;;;;;;;;16.25;16.25;;;;;28.16;42.35;101339.66;144255;592;131020;-68
2021/09/06 03:51:58;;;;;;;;;16.00;15.00;;;;;28.15;42.10;101337.94;144222;672;131905;-68
2021/09/06 03:54:32;;;;;;;;;11.50;10.50;;;;;28.12;42.15;101338.25;144253;576;131021;-68
2021/09/06 03:57:06;;;;;;;;;16.00;15.75;;;;;28.17;41.71;101341.38;144224;582;132018;-68
2021/09/06 03:59:40;;;;;;;;;13.75;13.75;;;;;28.25;41.64;101337.94;144253;585;132006;-67
2021/09/06 04:02:14;;;;;;;;;16.25;15.25;;;;;28.30;41.49;101345.63;144219;571;132010;-67
2021/09/06 04:04:48;;;;;;;;;21.25;20.50;;;;;28.18;42.83;101348.44;144241;620;131020;-69
2021/09/06 04:07:22;;;;;;;;;17.75;17.75;;;;;28.10;42.96;101359.09;144221;581;132012;-68
2021/09/06 04:09:56;;;;;;;;;19.75;16.50;;;;;27.98;42.87;101355.69;144251;566;132008;-69
2021/09/06 04:12:30;;;;;;;;;18.50;16.25;;;;;27.95;42.94;101361.34;144216;587;132010;-69
2021/09/06 04:15:12;;;;;;;;;13.00;13.00;;;;;27.70;43.06;101352.78;144250;604;131021;-68
2021/09/06 04:17:46;;;;;;;;;15.25;14.25;;;;;27.17;43.78;101361.12;144218;597;132867;-68
2021/09/06 04:20:19;;;;;;;;;16.75;15.50;;;;;27.34;43.13;101348.87;144252;595;131022;-68
2021/09/06 04:22:53;;;;;;;;;14.25;13.50;;;;;27.35;43.19;101354.12;144224;579;131905;-68
2021/09/06 04:25:27;;;;;;;;;14.25;13.75;;;;;27.27;43.50;101364.75;144252;741;131012;-68
2021/09/06 04:28:01;;;;;;;;;14.00;13.75;;;;;27.72;42.69;101371.56;144220;622;132905;-69
2021/09/06 04:30:38;;;;;;;;;13.00;12.50;;;;;27.63;42.57;101369.69;144237;565;132010;-69
2021/09/06 04:33:12;;;;;;;;;14.50;14.50;;;;;27.11;43.81;101381.41;144221;570;132012;-68
2021/09/06 04:35:46;;;;;;;;;17.50;16.00;;;;;27.28;44.07;101373.66;144255;616;131012;-69
2021/09/06 04:38:21;;;;;;;;;10.00;9.75;;;;;27.78;42.92;101376.37;144226;613;131905;-71
2021/09/06 04:40:54;;;;;;;;;13.00;12.25;;;;;27.67;43.08;101374.66;144266;707;131020;-69
2021/09/06 04:43:29;;;;;;;;;16.50;16.25;;;;;27.99;42.55;101375.41;144221;605;132010;-68
2021/09/06 04:46:02;;;;;;;;;16.25;15.25;;;;;28.32;41.69;101376.00;144249;589;132010;-70
2021/09/06 04:48:36;;;;;;;;;11.50;11.25;;;;;28.40;41.76;101376.13;144226;617;131016;-69
2021/09/06 04:51:11;;;;;;;;;15.50;12.00;;;;;28.57;41.42;101387.19;144244;577;132008;-69
2021/09/06 04:53:46;;;;;;;;;14.75;13.75;;;;;28.70;40.79;101380.56;144221;579;132010;-68
2021/09/06 04:56:22;;;;;;;;;19.75;19.75;;;;;28.80;40.83;101375.13;144239;586;132008;-68
2021/09/06 04:58:56;;;;;;;;;15.00;14.00;;;;;28.87;40.67;101369.97;144218;582;132034;-68
2021/09/06 05:01:30;;;;;;;;;19.75;18.25;;;;;28.76;40.80;101376.41;144247;573;131023;-67
2021/09/06 05:04:04;;;;;;;;;15.50;14.75;;;;;28.87;40.60;101388.91;144217;603;132012;-67
2021/09/06 05:06:38;;;;;;;;;13.25;12.00;;;;;28.96;40.46;101381.75;144253;584;131022;-68
2021/09/06 05:09:12;;;;;;;;;21.25;18.00;;;;;29.04;40.55;101389.97;144227;607;132010;-68
2021/09/06 05:11:46;;;;;;;;;18.00;17.00;;;;;28.96;40.34;101376.34;144254;564;132010;-68
2021/09/06 05:14:20;;;;;;;;;16.00;16.00;;;;;28.63;40.78;101386.63;144233;585;131016;-68
2021/09/06 05:16:54;;;;;;;;;20.00;13.25;;;;;28.97;40.33;101388.88;144250;572;131023;-67
2021/09/06 05:19:28;;;;;;;;;17.00;14.00;;;;;29.05;39.96;101391.69;144221;582;131905;-68
2021/09/06 05:22:01;;;;;;;;;17.50;15.25;;;;;29.09;39.71;101387.69;144238;604;132008;-67
2021/09/06 05:24:37;;;;;;;;;15.50;14.25;;;;;29.10;39.65;101392.09;144222;597;131904;-67
2021/09/06 05:27:11;;;;;;;;;13.50;13.50;;;;;29.13;39.39;101394.50;144257;569;131020;-68
2021/09/06 05:29:44;;;;;;;;;19.50;19.50;;;;;29.09;39.27;101392.22;144223;581;132010;-67
2021/09/06 05:32:18;;;;;;;;;9.75;9.25;;;;;29.07;39.60;101391.53;144253;586;131020;-67
2021/09/06 05:34:52;;;;;;;;;15.25;15.25;;;;;28.99;39.57;101390.41;144227;577;133016;-68
2021/09/06 05:37:26;;;;;;;;;17.25;14.25;;;;;28.90;39.90;101398.53;144253;574;131021;-67
2021/09/06 05:40:00;;;;;;;;;12.75;12.75;;;;;28.85;39.80;101393.56;144223;602;132905;-68
2021/09/06 05:42:34;;;;;;;;;12.50;11.75;;;;;28.79;40.38;101392.31;144254;597;131020;-68
2021/09/06 05:45:09;;;;;;;;;13.25;13.25;;;;;28.73;40.36;101403.69;144218;659;131904;-67
2021/09/06 05:47:42;;;;;;;;;13.25;10.25;;;;;28.69;40.98;101396.88;144247;565;131020;-67
2021/09/06 05:50:19;;;;;;;;;18.00;14.75;;;;;28.98;40.08;101398.66;144220;625;132904;-66
2021/09/06 05:52:53;;;;;;;;;18.75;17.50;;;;;29.08;39.59;101395.94;144255;586;131023;-66
2021/09/06 05:55:27;;;;;;;;;19.50;18.25;;;;;29.20;39.01;101401.00;144216;611;132904;-66
2021/09/06 05:58:01;;;;;;;;;20.00;19.75;;;;;28.97;40.02;101399.66;144255;583;131020;-66
2021/09/06 06:00:35;;;;;;;;;14.25;14.25;;;;;29.09;39.35;101397.62;144214;635;132010;-66
2021/09/06 06:03:08;;;;;;;;;16.75;15.25;;;;;28.85;39.75;101389.00;144254;577;131012;-67
2021/09/06 06:05:42;;;;;;;;;17.50;16.75;;;;;29.09;39.20;101397.62;144225;604;132905;-66
2021/09/06 06:08:16;;;;;;;;;16.25;15.25;;;;;29.06;39.49;101398.78;144249;618;132012;-66
2021/09/06 06:10:50;;;;;;;;;18.00;17.00;;;;;29.10;39.55;101402.03;144227;608;131905;-67
2021/09/06 06:13:24;;;;;;;;;13.75;13.75;;;;;29.13;39.44;101388.22;144237;586;132012;-66
2021/09/06 06:15:58;;;;;;;;;14.50;13.00;;;;;29.23;39.09;101396.31;144212;601;132020;-67
2021/09/06 06:18:32;;;;;;;;;16.00;15.75;;;;;29.30;38.98;101394.72;144252;605;132008;-66
2021/09/06 06:21:06;;;;;;;;;15.00;15.00;;;;;29.10;39.49;101397.50;144223;604;132905;-67
2021/09/06 06:23:40;;;;;;;;;14.25;14.25;;;;;29.28;38.92;101399.44;144248;670;131020;-69
2021/09/06 06:26:14;;;;;;;;;18.50;15.50;;;;;29.12;39.63;101397.34;144224;582;132020;-67
2021/09/06 06:28:47;;;;;;;;;17.75;17.25;;;;;29.29;39.24;101398.44;144241;575;132008;-69
2021/09/06 06:31:22;;;;;;;;;19.50;18.00;;;;;29.29;39.32;101409.25;144222;638;131904;-67
2021/09/06 06:33:55;;;;;;;;;15.00;12.00;;;;;29.15;39.43;101397.88;144249;554;132010;-69
2021/09/06 06:36:29;;;;;;;;;15.75;14.75;;;;;29.37;38.59;101398.53;144225;579;131020;-67
2021/09/06 06:39:05;;;;;;;;;10.75;10.00;;;;;28.94;37.31;101395.41;144239;677;132012;-68
2021/09/06 06:41:39;;;;;;;;;16.00;11.75;;;;;29.08;35.07;101404.88;144220;569;132010;-68
2021/09/06 06:44:13;;;;;;;;;12.75;9.50;;;;;28.70;34.09;101402.16;144252;586;132008;-69
2021/09/06 06:46:47;;;;;;;;;11.00;11.00;;;;;28.64;34.18;101408.12;144228;574;132012;-68
2021/09/06 06:49:22;;;;;;;;;12.25;11.00;;;;;28.07;37.29;101412.53;144248;607;132008;-68
2021/09/06 06:51:56;;;;;;;;;14.75;14.00;;;;;28.27;38.16;101408.84;144216;604;132905;-69
2021/09/06 06:54:30;;;;;;;;;16.25;14.25;;;;;28.25;38.33;101413.53;144252;643;131022;-68
2021/09/06 06:57:06;;;;;;;;;13.25;12.00;;;;;28.17;38.66;101424.16;144220;615;132013;-68
2021/09/06 06:59:39;;;;;;;;;13.50;12.50;;;;;27.33;39.87;101422.66;144251;604;131047;-68
2021/09/06 07:02:13;;;;;;;;;14.50;14.50;;;;;27.51;39.78;101423.72;144214;597;132018;-69
2021/09/06 07:04:47;;;;;;;;;14.50;12.50;;;;;28.37;37.42;101414.25;144237;611;132010;-69
2021/09/06 07:07:21;;;;;;;;;10.50;8.00;;;;;27.94;36.96;101423.53;144216;571;132010;-69
2021/09/06 07:09:55;;;;;;;;;13.25;12.75;;;;;28.23;36.82;101425.44;144254;581;132012;-68
2021/09/06 07:12:29;;;;;;;;;14.00;14.00;;;;;27.60;38.07;101437.37;144216;593;132012;-68
2021/09/06 07:15:03;;;;;;;;;13.25;11.75;;;;;27.52;36.50;101438.91;144250;570;132006;-70
2021/09/06 07:17:37;;;;;;;;;12.25;11.25;;;;;27.80;36.62;101427.50;144218;571;132020;-69
2021/09/06 07:20:12;;;;;;;;;11.50;10.00;;;;;27.42;37.22;101423.69;144252;565;132010;-69
2021/09/06 07:22:45;;;;;;;;;11.50;11.50;;;;;27.64;37.27;101420.81;144223;569;132904;-69
2021/09/06 07:25:19;;;;;;;;;15.00;13.75;;;;;27.32;38.59;101427.16;144256;626;131020;-69
2021/09/06 07:28:00;;;;;;;;;13.00;11.25;;;;;27.13;39.42;101430.66;144218;613;131904;-70
2021/09/06 07:30:34;;;;;;;;;15.50;13.00;;;;;27.61;38.90;101441.78;144240;602;131997;-69
2021/09/06 07:33:08;;;;;;;;;15.50;12.75;;;;;27.40;38.49;101442.69;144224;580;132039;-69
2021/09/06 07:35:42;;;;;;;;;10.00;10.00;;;;;27.18;38.56;101428.38;144253;608;131043;-69
2021/09/06 07:38:16;;;;;;;;;11.50;11.50;;;;;27.66;39.48;101447.63;144228;652;131904;-69
2021/09/06 07:40:50;;;;;;;;;13.25;13.25;;;;;27.25;41.74;101447.56;144252;724;132009;-68
2021/09/06 07:43:24;;;;;;;;;20.00;16.50;;;;;27.47;42.15;101469.97;144222;569;132905;-69
2021/09/06 07:45:58;;;;;;;;;16.50;15.25;;;;;27.83;41.97;101478.47;144255;575;131012;-70
2021/09/06 07:48:32;;;;;;;;;14.75;13.75;;;;;27.12;44.38;101465.78;144224;619;131905;-68
2021/09/06 07:51:06;;;;;;;;;18.50;17.00;;;;;26.57;46.11;101466.81;144251;644;131020;-70
2021/09/06 07:53:39;;;;;;;;;16.00;16.00;;;;;26.82;46.18;101452.16;144225;569;132905;-69
2021/09/06 07:56:13;;;;;;;;;16.00;16.00;;;;;27.87;43.97;101455.62;144240;601;132012;-68
2021/09/06 07:58:47;;;;;;;;;16.50;15.00;;;;;28.20;42.63;101457.16;144224;593;131905;-69
2021/09/06 08:01:21;;;;;;;;;12.00;12.00;;;;;27.32;45.34;101458.66;144253;577;132006;-69
2021/09/06 08:03:55;;;;;;;;;15.25;15.25;;;;;26.88;48.12;101468.78;144226;732;131020;-69
2021/09/06 08:06:29;;;;;;;;;14.00;14.00;;;;;26.39;46.97;101484.50;144259;611;131020;-68
2021/09/06 08:09:03;;;;;;;;;13.00;12.50;;;;;26.33;48.16;101481.34;144219;605;132019;-69
2021/09/06 08:11:37;;;;;;;;;12.25;12.25;;;;;28.15;44.37;101478.31;144259;627;131021;-69
2021/09/06 08:14:11;;;;;;;;;12.25;10.50;;;;;28.49;43.51;101480.59;144218;688;132012;-69
2021/09/06 08:16:45;;;;;;;;;12.00;11.00;;;;;28.28;42.78;101477.19;144256;592;131022;-70
2021/09/06 08:19:19;;;;;;;;;16.50;15.75;;;;;29.20;41.69;101476.69;144216;616;132904;-69
2021/09/06 08:21:53;;;;;;;;;20.00;19.75;;;;;29.47;41.82;101469.66;144247;581;131012;-68
2021/09/06 08:24:28;;;;;;;;;71.67;64.00;;;;;29.43;41.14;101470.09;144226;592;132018;-69
2021/09/06 08:27:02;;;;;;;;;46.50;39.50;;;;;29.09;41.75;101474.19;144259;618;131021;-70
2021/09/06 08:29:36;;;;;;;;;64.00;51.50;;;;;29.48;40.95;101470.50;144217;611;132018;-68
2021/09/06 08:32:10;;;;;;;;;49.25;40.25;;;;;28.81;40.52;101457.84;144246;572;132008;-69
2021/09/06 08:34:44;;;;;;;;;16.00;14.75;;;;;28.32;40.62;101467.81;144224;610;132905;-68
2021/09/06 08:37:18;;;;;;;;;37.75;32.00;;;;;28.76;40.46;101478.19;144249;605;131052;-69
2021/09/06 08:39:52;;;;;;;;;35.00;31.00;;;;;29.62;39.55;101479.97;144215;592;132905;-69
2021/09/06 08:42:26;;;;;;;;;26.00;26.00;;;;;29.94;39.27;101470.59;144249;639;132008;-69
2021/09/06 08:45:00;;;;;;;;;26.00;25.00;;;;;30.29;39.13;101472.50;144223;565;132905;-69
2021/09/06 08:47:44;;;;;;;;;23.75;22.75;;;;;30.11;39.60;101479.75;144247;566;132021;-69
2021/09/06 08:50:21;;;;;;;;;15.25;14.25;;;;;30.03;39.22;101475.09;144220;626;132010;-69
2021/09/06 08:52:55;;;;;;;;;14.50;13.00;;;;;28.12;40.14;101481.28;144259;593;131020;-70
2021/09/06 08:55:29;;;;;;;;;15.00;13.50;;;;;28.76;40.14;101487.19;144224;572;132010;-70
2021/09/06 08:58:03;;;;;;;;;11.00;11.00;;;;;28.43;40.59;101494.69;144254;585;131026;-70
2021/09/06 09:00:37;;;;;;;;;13.00;13.00;;;;;29.03;40.08;101480.16;144216;577;132904;-69
2021/09/06 09:03:14;;;;;;;;;11.50;11.50;;;;;29.93;37.88;101479.72;144255;628;132006;-68
2021/09/06 09:06:08;;;;;;;;;9.75;9.25;;;;;30.50;36.83;101476.78;144231;578;132904;-69
2021/09/06 09:08:42;;;;;;;;;12.75;12.75;;;;;30.23;36.78;101489.34;144259;564;132012;-69
2021/09/06 09:11:16;;;;;;;;;19.75;17.75;;;;;30.33;37.09;101489.28;144226;710;132905;-69
2021/09/06 09:16:31;;;;;;;;;12.50;10.75;;;;;29.86;34.12;101472.19;144236;576;132933;-70
2021/09/06 09:19:09;;;;;;;;;10.00;9.25;;;;;29.41;35.15;101467.56;144253;595;132008;-69
2021/09/06 09:21:43;;;;;;;;;7.25;7.00;;;;;29.50;35.54;101455.84;144228;593;132911;-69
2021/09/06 09:24:24;;;;;;;;;11.75;11.00;;;;;28.83;34.46;101458.56;144261;565;131021;-68
2021/09/06 09:27:06;;;;;;;;;11.50;10.00;;;;;29.62;33.66;101452.94;144225;628;132012;-68
2021/09/06 09:29:41;;;;;;;;;8.75;8.75;;;;;29.24;34.59;101452.94;144256;671;131020;-70
2021/09/06 09:32:16;;;;;;;;;12.25;12.25;;;;;28.39;38.63;101463.56;144240;626;132020;-69
2021/09/06 09:34:50;;;;;;;;;12.25;12.25;;;;;27.81;38.90;101453.50;144258;569;132008;-69
2021/09/06 09:37:30;;;;;;;;;8.50;8.50;;;;;27.41;41.20;101433.63;144226;576;132020;-68
2021/09/06 09:40:09;;;;;;;;;7.50;7.50;;;;;27.45;40.30;101437.75;144248;725;131021;-69
2021/09/06 09:42:53;;;;;;;;;11.00;9.25;;;;;28.73;36.74;101452.31;144225;597;132020;-69
2021/09/06 09:45:28;;;;;;;;;8.25;8.00;;;;;28.35;36.54;101459.41;144258;598;132019;-69
2021/09/06 09:48:04;;;;;;;;;12.50;11.25;;;;;27.75;37.92;101452.19;144227;627;132907;-68
2021/09/06 09:50:39;;;;;;;;;10.25;10.25;;;;;28.27;37.15;101446.63;144260;620;131020;-68
2021/09/06 09:53:13;;;;;;;;;9.75;9.75;;;;;28.40;34.83;101450.91;144226;587;132010;-68
2021/09/06 09:55:47;;;;;;;;;8.75;8.75;;;;;29.98;33.29;101451.19;144266;616;131023;-69
2021/09/06 09:58:21;;;;;;;;;10.00;10.00;;;;;29.37;33.60;101447.22;144242;571;132020;-69
2021/09/06 10:00:55;;;;;;;;;9.00;9.00;;;;;30.20;31.62;101447.19;144257;716;131020;-68
2021/09/06 10:03:33;;;;;;;;;9.00;9.00;;;;;31.35;31.64;101436.38;144236;581;132912;-69
2021/09/06 10:06:08;;;;;;;;;10.50;10.50;;;;;32.04;31.09;101435.44;144239;632;132008;-68
2021/09/06 10:08:44;;;;;;;;;9.00;8.75;;;;;32.29;30.05;101447.22;144221;597;132020;-69
2021/09/06 10:11:18;;;;;;;;;9.25;9.25;;;;;32.49;30.04;101455.03;144264;579;131021;-69
2021/09/06 10:13:51;;;;;;;;;10.00;10.00;;;;;30.28;30.57;101449.12;144224;573;132911;-69
2021/09/06 10:16:35;;;;;;;;;10.50;10.25;;;;;30.75;31.75;101453.44;144260;587;131021;-69
2021/09/06 10:19:13;;;;;;;;;9.50;9.50;;;;;28.78;33.07;101457.31;144219;595;132912;-69
2021/09/06 10:21:49;;;;;;;;;7.75;7.75;;;;;29.45;32.36;101460.00;144260;624;132008;-69
2021/09/06 10:24:26;;;;;;;;;10.00;10.00;;;;;29.67;31.48;101473.13;144236;569;132020;-69
2021/09/06 10:27:10;;;;;;;;;7.25;7.25;;;;;30.01;29.57;101469.00;144250;564;132008;-68
2021/09/06 10:29:44;;;;;;;;;6.25;5.25;;;;;30.26;27.04;101451.13;144234;612;132911;-69
2021/09/06 10:32:18;;;;;;;;;7.25;7.25;;;;;30.79;26.56;101457.53;144251;583;131021;-68
2021/09/06 10:34:52;;;;;;;;;10.25;9.75;;;;;31.19;26.41;101448.00;144232;604;132911;-69
2021/09/06 10:37:35;;;;;;;;;8.00;8.00;;;;;31.12;26.89;101446.94;144253;569;132010;-69
2021/09/06 10:40:14;;;;;;;;;10.00;9.75;;;;;31.22;26.48;101442.25;144232;579;131591;-68
2021/09/06 10:42:47;;;;;;;;;6.50;5.50;;;;;31.41;25.18;101442.16;144258;615;132010;-68
2021/09/06 10:45:22;;;;;;;;;7.00;7.00;;;;;31.43;24.65;101442.88;144227;732;131911;-69
2021/09/06 10:48:08;;;;;;;;;9.00;8.00;;;;;32.03;24.24;101448.16;144262;579;131021;-68
2021/09/06 10:50:42;;;;;;;;;8.25;8.25;;;;;31.99;24.84;101440.53;144231;595;132911;-69
2021/09/06 10:56:29;;;;;;;;;8.25;8.25;;;;;32.28;23.95;101444.69;144228;581;131921;-68
2021/09/06 10:59:03;;;;;;;;;10.00;9.00;;;;;32.20;23.35;101451.78;144231;701;133020;-68
2021/09/06 11:01:37;;;;;;;;;12.00;10.75;;;;;31.34;25.15;101440.13;144229;634;132010;-69
2021/09/06 11:04:11;;;;;;;;;9.25;9.00;;;;;31.36;25.69;101435.38;144252;597;132008;-67
2021/09/06 11:06:45;;;;;;;;;8.50;8.50;;;;;30.79;26.72;101449.41;144227;569;132010;-69
2021/09/06 11:09:29;;;;;;;;;12.00;10.25;;;;;31.37;23.80;101439.78;144261;633;131021;-69
2021/09/06 11:12:08;;;;;;;;;4.75;4.75;;;;;31.44;23.90;101431.84;144215;658;132012;-69
2021/09/06 11:14:48;;;;;;;;;9.50;9.50;;;;;31.90;23.04;101434.22;144255;784;132008;-69
2021/09/06 11:17:24;;;;;;;;;5.25;5.00;;;;;31.50;24.34;101423.03;144230;667;132012;-69
2021/09/06 11:20:01;;;;;;;;;7.50;7.50;;;;;32.41;23.48;101431.44;144265;563;131022;-68
2021/09/06 11:22:35;;;;;;;;;8.00;7.50;;;;;32.42;23.95;101433.13;144225;584;131913;-69
2021/09/06 11:25:10;;;;;;;;;7.00;7.00;;;;;32.06;23.76;101430.69;144243;585;131035;-69
2021/09/06 11:27:44;;;;;;;;;8.00;8.00;;;;;31.61;24.38;101429.22;144218;582;132912;-68
2021/09/06 11:30:27;;;;;;;;;11.25;9.00;;;;;31.52;25.89;101428.31;144260;633;132010;-68
2021/09/06 11:33:02;;;;;;;;;11.25;10.75;;;;;31.39;27.21;101440.47;144230;567;131912;-68
2021/09/06 11:35:43;;;;;;;;;11.50;10.75;;;;;30.46;28.98;101435.59;144253;584;131022;-68
2021/09/06 11:38:19;;;;;;;;;8.00;8.00;;;;;30.68;28.51;101442.38;144219;740;131913;-69
2021/09/06 11:41:03;;;;;;;;;7.00;7.00;;;;;31.48;27.70;101440.50;144261;628;132010;-68
2021/09/06 11:43:37;;;;;;;;;8.50;8.50;;;;;31.11;28.42;101447.09;144237;569;132915;-68